sensor_id;sensor_type;location;lat;lon;timestamp;P1;durP1;ratioP1;P2;durP2;ratioP2
22034;SDS011;11181;51.002;4.356;2024-03-06T00:00:30;8.13;;;5.30;;
22034;SDS011;11181;51.002;4.356;2024-03-06T00:02:58;7.93;;;6.77;;
22034;SDS011;11181;51.002;4.356;2024-03-06T00:05:25;7.20;;;5.27;;
22034;SDS011;11181;51.002;4.356;2024-03-06T00:07:52;7.93;;;5.23;;
22034;SDS011;11181;51.002;4.356;2024-03-06T00:10:20;6.10;;;4.37;;
22034;SDS011;11181;51.002;4.356;2024-03-06T00:12:47;6.87;;;4.87;;
22034;SDS011;11181;51.002;4.356;2024-03-06T00:15:14;5.57;;;4.20;;
22034;SDS011;11181;51.002;4.356;2024-03-06T00:17:41;7.80;;;4.10;;
22034;SDS011;11181;51.002;4.356;2024-03-06T00:20:08;8.13;;;4.87;;
22034;SDS011;11181;51.002;4.356;2024-03-06T00:22:35;5.97;;;4.20;;
22034;SDS011;11181;51.002;4.356;2024-03-06T00:25:02;5.40;;;3.90;;
22034;SDS011;11181;51.002;4.356;2024-03-06T00:27:31;4.67;;;4.10;;
22034;SDS011;11181;51.002;4.356;2024-03-06T00:29:58;6.17;;;3.97;;
22034;SDS011;11181;51.002;4.356;2024-03-06T00:32:25;7.77;;;4.63;;
22034;SDS011;11181;51.002;4.356;2024-03-06T00:34:53;6.53;;;4.23;;
22034;SDS011;11181;51.002;4.356;2024-03-06T00:37:20;6.57;;;3.97;;
22034;SDS011;11181;51.002;4.356;2024-03-06T00:39:47;7.63;;;4.43;;
22034;SDS011;11181;51.002;4.356;2024-03-06T00:42:14;6.13;;;4.70;;
22034;SDS011;11181;51.002;4.356;2024-03-06T00:44:43;5.90;;;4.23;;
22034;SDS011;11181;51.002;4.356;2024-03-06T00:47:10;4.87;;;3.93;;
22034;SDS011;11181;51.002;4.356;2024-03-06T00:49:37;6.20;;;4.03;;
22034;SDS011;11181;51.002;4.356;2024-03-06T00:52:04;5.37;;;4.27;;
22034;SDS011;11181;51.002;4.356;2024-03-06T00:54:31;6.63;;;4.50;;
22034;SDS011;11181;51.002;4.356;2024-03-06T00:56:58;6.33;;;4.17;;
22034;SDS011;11181;51.002;4.356;2024-03-06T00:59:25;6.20;;;4.73;;
22034;SDS011;11181;51.002;4.356;2024-03-06T01:01:53;5.43;;;4.10;;
22034;SDS011;11181;51.002;4.356;2024-03-06T01:04:21;7.50;;;4.53;;
22034;SDS011;11181;51.002;4.356;2024-03-06T01:06:48;6.50;;;4.43;;
22034;SDS011;11181;51.002;4.356;2024-03-06T01:09:15;5.90;;;4.10;;
22034;SDS011;11181;51.002;4.356;2024-03-06T01:11:42;7.10;;;4.23;;
22034;SDS011;11181;51.002;4.356;2024-03-06T01:14:08;5.13;;;3.90;;
22034;SDS011;11181;51.002;4.356;2024-03-06T01:16:35;6.13;;;4.07;;
22034;SDS011;11181;51.002;4.356;2024-03-06T01:19:03;5.93;;;4.57;;
22034;SDS011;11181;51.002;4.356;2024-03-06T01:21:30;5.97;;;4.20;;
22034;SDS011;11181;51.002;4.356;2024-03-06T01:23:59;6.27;;;4.77;;
22034;SDS011;11181;51.002;4.356;2024-03-06T01:26:26;6.90;;;4.37;;
22034;SDS011;11181;51.002;4.356;2024-03-06T01:28:53;4.73;;;4.00;;
22034;SDS011;11181;51.002;4.356;2024-03-06T01:31:20;5.67;;;3.97;;
22034;SDS011;11181;51.002;4.356;2024-03-06T01:33:46;4.87;;;3.10;;
22034;SDS011;11181;51.002;4.356;2024-03-06T01:36:15;5.47;;;4.13;;
22034;SDS011;11181;51.002;4.356;2024-03-06T01:38:41;6.37;;;4.30;;
22034;SDS011;11181;51.002;4.356;2024-03-06T01:41:11;7.10;;;4.23;;
22034;SDS011;11181;51.002;4.356;2024-03-06T01:43:37;5.73;;;4.37;;
22034;SDS011;11181;51.002;4.356;2024-03-06T01:46:05;6.97;;;4.30;;
22034;SDS011;11181;51.002;4.356;2024-03-06T01:48:32;6.33;;;5.40;;
22034;SDS011;11181;51.002;4.356;2024-03-06T01:51:01;5.73;;;4.33;;
22034;SDS011;11181;51.002;4.356;2024-03-06T01:53:31;7.77;;;4.73;;
22034;SDS011;11181;51.002;4.356;2024-03-06T01:55:59;6.67;;;4.73;;
22034;SDS011;11181;51.002;4.356;2024-03-06T01:58:26;6.20;;;4.43;;
22034;SDS011;11181;51.002;4.356;2024-03-06T02:00:54;5.23;;;4.17;;
22034;SDS011;11181;51.002;4.356;2024-03-06T02:03:21;8.83;;;4.20;;
22034;SDS011;11181;51.002;4.356;2024-03-06T02:05:48;6.57;;;4.43;;
22034;SDS011;11181;51.002;4.356;2024-03-06T02:08:15;4.80;;;4.10;;
22034;SDS011;11181;51.002;4.356;2024-03-06T02:10:45;6.53;;;4.93;;
22034;SDS011;11181;51.002;4.356;2024-03-06T02:13:12;5.47;;;4.80;;
22034;SDS011;11181;51.002;4.356;2024-03-06T02:15:39;6.63;;;4.20;;
22034;SDS011;11181;51.002;4.356;2024-03-06T02:18:07;7.67;;;5.30;;
22034;SDS011;11181;51.002;4.356;2024-03-06T02:20:37;6.30;;;4.43;;
22034;SDS011;11181;51.002;4.356;2024-03-06T02:23:05;5.60;;;4.17;;
22034;SDS011;11181;51.002;4.356;2024-03-06T02:25:32;5.37;;;4.47;;
22034;SDS011;11181;51.002;4.356;2024-03-06T02:27:58;5.93;;;4.20;;
22034;SDS011;11181;51.002;4.356;2024-03-06T02:30:25;6.77;;;4.37;;
22034;SDS011;11181;51.002;4.356;2024-03-06T02:32:52;5.17;;;4.47;;
22034;SDS011;11181;51.002;4.356;2024-03-06T02:35:19;6.13;;;5.03;;
22034;SDS011;11181;51.002;4.356;2024-03-06T02:37:47;5.70;;;4.03;;
22034;SDS011;11181;51.002;4.356;2024-03-06T02:40:14;6.43;;;4.90;;
22034;SDS011;11181;51.002;4.356;2024-03-06T02:42:41;7.60;;;4.40;;
22034;SDS011;11181;51.002;4.356;2024-03-06T02:45:08;5.63;;;4.97;;
22034;SDS011;11181;51.002;4.356;2024-03-06T02:47:35;5.90;;;4.97;;
22034;SDS011;11181;51.002;4.356;2024-03-06T02:50:02;5.30;;;4.50;;
22034;SDS011;11181;51.002;4.356;2024-03-06T02:52:30;4.90;;;4.40;;
22034;SDS011;11181;51.002;4.356;2024-03-06T02:54:58;7.13;;;4.53;;
22034;SDS011;11181;51.002;4.356;2024-03-06T02:57:26;6.00;;;4.03;;
22034;SDS011;11181;51.002;4.356;2024-03-06T02:59:53;5.27;;;4.70;;
22034;SDS011;11181;51.002;4.356;2024-03-06T03:02:21;4.77;;;3.90;;
22034;SDS011;11181;51.002;4.356;2024-03-06T03:04:48;5.70;;;4.93;;
22034;SDS011;11181;51.002;4.356;2024-03-06T03:07:15;6.27;;;4.47;;
22034;SDS011;11181;51.002;4.356;2024-03-06T03:09:42;4.90;;;4.17;;
22034;SDS011;11181;51.002;4.356;2024-03-06T03:12:10;4.37;;;3.97;;
22034;SDS011;11181;51.002;4.356;2024-03-06T03:14:37;5.67;;;4.13;;
22034;SDS011;11181;51.002;4.356;2024-03-06T03:17:06;5.40;;;4.47;;
22034;SDS011;11181;51.002;4.356;2024-03-06T03:19:33;5.90;;;4.97;;
22034;SDS011;11181;51.002;4.356;2024-03-06T03:22:00;8.20;;;4.67;;
22034;SDS011;11181;51.002;4.356;2024-03-06T03:24:29;6.50;;;5.00;;
22034;SDS011;11181;51.002;4.356;2024-03-06T03:26:56;6.10;;;4.37;;
22034;SDS011;11181;51.002;4.356;2024-03-06T03:29:24;6.13;;;4.93;;
22034;SDS011;11181;51.002;4.356;2024-03-06T03:31:51;5.73;;;4.67;;
22034;SDS011;11181;51.002;4.356;2024-03-06T03:34:18;5.90;;;4.47;;
22034;SDS011;11181;51.002;4.356;2024-03-06T03:36:46;6.27;;;4.60;;
22034;SDS011;11181;51.002;4.356;2024-03-06T03:39:13;5.27;;;4.70;;
22034;SDS011;11181;51.002;4.356;2024-03-06T03:41:44;4.60;;;3.97;;
22034;SDS011;11181;51.002;4.356;2024-03-06T03:44:11;7.87;;;5.13;;
22034;SDS011;11181;51.002;4.356;2024-03-06T03:46:40;7.17;;;4.87;;
22034;SDS011;11181;51.002;4.356;2024-03-06T03:49:07;8.20;;;5.40;;
22034;SDS011;11181;51.002;4.356;2024-03-06T03:51:34;7.63;;;5.10;;
22034;SDS011;11181;51.002;4.356;2024-03-06T03:54:02;6.17;;;4.90;;
22034;SDS011;11181;51.002;4.356;2024-03-06T03:56:29;6.17;;;4.77;;
22034;SDS011;11181;51.002;4.356;2024-03-06T03:58:56;5.47;;;4.70;;
22034;SDS011;11181;51.002;4.356;2024-03-06T04:01:23;6.33;;;4.77;;
22034;SDS011;11181;51.002;4.356;2024-03-06T04:03:52;6.07;;;4.97;;
22034;SDS011;11181;51.002;4.356;2024-03-06T04:06:19;5.90;;;4.33;;
22034;SDS011;11181;51.002;4.356;2024-03-06T04:08:45;5.93;;;4.60;;
22034;SDS011;11181;51.002;4.356;2024-03-06T04:11:13;5.60;;;4.03;;
22034;SDS011;11181;51.002;4.356;2024-03-06T04:13:40;5.33;;;4.10;;
22034;SDS011;11181;51.002;4.356;2024-03-06T04:16:07;7.10;;;4.70;;
22034;SDS011;11181;51.002;4.356;2024-03-06T04:18:34;6.67;;;5.10;;
22034;SDS011;11181;51.002;4.356;2024-03-06T04:21:03;6.03;;;4.80;;
22034;SDS011;11181;51.002;4.356;2024-03-06T04:23:31;9.33;;;5.83;;
22034;SDS011;11181;51.002;4.356;2024-03-06T04:25:58;6.70;;;5.30;;
22034;SDS011;11181;51.002;4.356;2024-03-06T04:28:25;5.63;;;4.73;;
22034;SDS011;11181;51.002;4.356;2024-03-06T04:30:52;6.37;;;5.43;;
22034;SDS011;11181;51.002;4.356;2024-03-06T04:33:19;7.83;;;5.60;;
22034;SDS011;11181;51.002;4.356;2024-03-06T04:35:45;9.67;;;6.10;;
22034;SDS011;11181;51.002;4.356;2024-03-06T04:38:14;9.90;;;7.00;;
22034;SDS011;11181;51.002;4.356;2024-03-06T04:40:41;8.73;;;6.20;;
22034;SDS011;11181;51.002;4.356;2024-03-06T04:43:07;8.90;;;5.63;;
22034;SDS011;11181;51.002;4.356;2024-03-06T04:45:34;8.17;;;5.70;;
22034;SDS011;11181;51.002;4.356;2024-03-06T04:48:01;8.13;;;5.40;;
22034;SDS011;11181;51.002;4.356;2024-03-06T04:50:28;7.63;;;5.87;;
22034;SDS011;11181;51.002;4.356;2024-03-06T04:52:55;6.40;;;5.03;;
22034;SDS011;11181;51.002;4.356;2024-03-06T04:55:23;5.53;;;4.00;;
22034;SDS011;11181;51.002;4.356;2024-03-06T04:57:51;7.17;;;5.40;;
22034;SDS011;11181;51.002;4.356;2024-03-06T05:00:19;6.63;;;5.30;;
22034;SDS011;11181;51.002;4.356;2024-03-06T05:02:46;8.67;;;5.30;;
22034;SDS011;11181;51.002;4.356;2024-03-06T05:05:14;8.50;;;6.13;;
22034;SDS011;11181;51.002;4.356;2024-03-06T05:07:41;7.87;;;5.63;;
22034;SDS011;11181;51.002;4.356;2024-03-06T05:10:08;8.73;;;6.20;;
22034;SDS011;11181;51.002;4.356;2024-03-06T05:12:37;8.77;;;6.00;;
22034;SDS011;11181;51.002;4.356;2024-03-06T05:15:04;6.87;;;5.87;;
22034;SDS011;11181;51.002;4.356;2024-03-06T05:17:31;7.27;;;5.60;;
22034;SDS011;11181;51.002;4.356;2024-03-06T05:19:58;7.37;;;5.20;;
22034;SDS011;11181;51.002;4.356;2024-03-06T05:22:25;6.33;;;5.30;;
22034;SDS011;11181;51.002;4.356;2024-03-06T05:24:52;7.03;;;5.40;;
22034;SDS011;11181;51.002;4.356;2024-03-06T05:27:20;6.20;;;5.13;;
22034;SDS011;11181;51.002;4.356;2024-03-06T05:29:48;7.33;;;5.87;;
22034;SDS011;11181;51.002;4.356;2024-03-06T05:32:15;7.00;;;5.47;;
22034;SDS011;11181;51.002;4.356;2024-03-06T05:34:42;6.87;;;5.30;;
22034;SDS011;11181;51.002;4.356;2024-03-06T05:37:09;7.20;;;5.40;;
22034;SDS011;11181;51.002;4.356;2024-03-06T05:39:36;6.87;;;5.53;;
22034;SDS011;11181;51.002;4.356;2024-03-06T05:42:03;7.37;;;5.50;;
22034;SDS011;11181;51.002;4.356;2024-03-06T05:44:31;7.30;;;5.73;;
22034;SDS011;11181;51.002;4.356;2024-03-06T05:47:00;7.47;;;5.83;;
22034;SDS011;11181;51.002;4.356;2024-03-06T05:49:28;6.90;;;5.40;;
22034;SDS011;11181;51.002;4.356;2024-03-06T05:51:55;7.77;;;5.53;;
22034;SDS011;11181;51.002;4.356;2024-03-06T05:54:22;8.53;;;5.97;;
22034;SDS011;11181;51.002;4.356;2024-03-06T05:56:49;5.97;;;5.00;;
22034;SDS011;11181;51.002;4.356;2024-03-06T05:59:18;9.97;;;6.47;;
22034;SDS011;11181;51.002;4.356;2024-03-06T06:01:45;7.87;;;6.10;;
22034;SDS011;11181;51.002;4.356;2024-03-06T06:04:13;10.30;;;6.47;;
22034;SDS011;11181;51.002;4.356;2024-03-06T06:06:40;7.67;;;6.17;;
22034;SDS011;11181;51.002;4.356;2024-03-06T06:09:07;8.67;;;6.43;;
22034;SDS011;11181;51.002;4.356;2024-03-06T06:11:38;7.73;;;6.00;;
22034;SDS011;11181;51.002;4.356;2024-03-06T06:14:05;7.90;;;6.43;;
22034;SDS011;11181;51.002;4.356;2024-03-06T06:16:35;9.23;;;6.83;;
22034;SDS011;11181;51.002;4.356;2024-03-06T06:19:03;6.57;;;5.87;;
22034;SDS011;11181;51.002;4.356;2024-03-06T06:21:32;9.70;;;6.10;;
22034;SDS011;11181;51.002;4.356;2024-03-06T06:24:00;7.27;;;5.97;;
22034;SDS011;11181;51.002;4.356;2024-03-06T06:26:28;6.97;;;5.80;;
22034;SDS011;11181;51.002;4.356;2024-03-06T06:28:55;8.50;;;6.00;;
22034;SDS011;11181;51.002;4.356;2024-03-06T06:31:22;8.37;;;6.07;;
22034;SDS011;11181;51.002;4.356;2024-03-06T06:33:51;8.97;;;6.80;;
22034;SDS011;11181;51.002;4.356;2024-03-06T06:36:18;9.03;;;6.73;;
22034;SDS011;11181;51.002;4.356;2024-03-06T06:38:46;9.47;;;6.63;;
22034;SDS011;11181;51.002;4.356;2024-03-06T06:41:13;9.43;;;5.83;;
22034;SDS011;11181;51.002;4.356;2024-03-06T06:43:40;9.53;;;6.83;;
22034;SDS011;11181;51.002;4.356;2024-03-06T06:46:07;9.23;;;6.63;;
22034;SDS011;11181;51.002;4.356;2024-03-06T06:48:34;7.80;;;6.77;;
22034;SDS011;11181;51.002;4.356;2024-03-06T06:51:02;9.70;;;7.13;;
22034;SDS011;11181;51.002;4.356;2024-03-06T06:53:29;8.90;;;6.23;;
22034;SDS011;11181;51.002;4.356;2024-03-06T06:55:58;8.43;;;5.93;;
22034;SDS011;11181;51.002;4.356;2024-03-06T06:58:25;10.13;;;6.63;;
22034;SDS011;11181;51.002;4.356;2024-03-06T07:00:53;8.37;;;6.50;;
22034;SDS011;11181;51.002;4.356;2024-03-06T07:03:20;8.17;;;6.60;;
22034;SDS011;11181;51.002;4.356;2024-03-06T07:05:48;9.40;;;6.83;;
22034;SDS011;11181;51.002;4.356;2024-03-06T07:08:15;8.87;;;6.90;;
22034;SDS011;11181;51.002;4.356;2024-03-06T07:10:42;9.83;;;7.57;;
22034;SDS011;11181;51.002;4.356;2024-03-06T07:13:10;8.47;;;7.17;;
22034;SDS011;11181;51.002;4.356;2024-03-06T07:15:37;9.63;;;7.27;;
22034;SDS011;11181;51.002;4.356;2024-03-06T07:18:04;8.27;;;6.73;;
22034;SDS011;11181;51.002;4.356;2024-03-06T07:20:31;14.20;;;8.03;;
22034;SDS011;11181;51.002;4.356;2024-03-06T07:22:58;8.53;;;6.77;;
22034;SDS011;11181;51.002;4.356;2024-03-06T07:25:25;10.67;;;7.77;;
22034;SDS011;11181;51.002;4.356;2024-03-06T07:27:52;11.33;;;8.20;;
22034;SDS011;11181;51.002;4.356;2024-03-06T07:30:20;11.77;;;8.73;;
22034;SDS011;11181;51.002;4.356;2024-03-06T07:32:47;11.43;;;8.97;;
22034;SDS011;11181;51.002;4.356;2024-03-06T07:35:14;13.03;;;8.03;;
22034;SDS011;11181;51.002;4.356;2024-03-06T07:37:42;13.00;;;8.43;;
22034;SDS011;11181;51.002;4.356;2024-03-06T07:40:10;13.97;;;7.97;;
22034;SDS011;11181;51.002;4.356;2024-03-06T07:42:37;14.80;;;9.93;;
22034;SDS011;11181;51.002;4.356;2024-03-06T07:45:04;11.53;;;8.77;;
22034;SDS011;11181;51.002;4.356;2024-03-06T07:47:35;11.33;;;7.83;;
22034;SDS011;11181;51.002;4.356;2024-03-06T07:50:03;11.70;;;7.67;;
22034;SDS011;11181;51.002;4.356;2024-03-06T07:52:33;10.80;;;6.77;;
22034;SDS011;11181;51.002;4.356;2024-03-06T07:55:01;11.27;;;7.87;;
22034;SDS011;11181;51.002;4.356;2024-03-06T07:57:28;13.43;;;7.63;;
22034;SDS011;11181;51.002;4.356;2024-03-06T07:59:54;14.20;;;7.63;;
22034;SDS011;11181;51.002;4.356;2024-03-06T08:02:21;9.80;;;6.97;;
22034;SDS011;11181;51.002;4.356;2024-03-06T08:04:50;10.07;;;6.83;;
22034;SDS011;11181;51.002;4.356;2024-03-06T08:07:17;9.83;;;6.37;;
22034;SDS011;11181;51.002;4.356;2024-03-06T08:09:43;11.63;;;6.90;;
22034;SDS011;11181;51.002;4.356;2024-03-06T08:12:10;7.93;;;6.40;;
22034;SDS011;11181;51.002;4.356;2024-03-06T08:14:37;8.80;;;7.07;;
22034;SDS011;11181;51.002;4.356;2024-03-06T08:17:04;8.93;;;6.80;;
22034;SDS011;11181;51.002;4.356;2024-03-06T08:19:31;10.47;;;6.20;;
22034;SDS011;11181;51.002;4.356;2024-03-06T08:22:00;9.43;;;5.70;;
22034;SDS011;11181;51.002;4.356;2024-03-06T08:24:27;6.67;;;6.00;;
22034;SDS011;11181;51.002;4.356;2024-03-06T08:26:54;8.57;;;6.37;;
22034;SDS011;11181;51.002;4.356;2024-03-06T08:29:22;8.00;;;6.50;;
22034;SDS011;11181;51.002;4.356;2024-03-06T08:31:49;7.40;;;6.33;;
22034;SDS011;11181;51.002;4.356;2024-03-06T08:34:16;9.00;;;6.03;;
22034;SDS011;11181;51.002;4.356;2024-03-06T08:36:43;9.97;;;5.50;;
22034;SDS011;11181;51.002;4.356;2024-03-06T08:39:11;8.30;;;5.57;;
22034;SDS011;11181;51.002;4.356;2024-03-06T08:41:41;7.30;;;5.47;;
22034;SDS011;11181;51.002;4.356;2024-03-06T08:44:08;6.63;;;5.50;;
22034;SDS011;11181;51.002;4.356;2024-03-06T08:46:35;7.10;;;5.13;;
22034;SDS011;11181;51.002;4.356;2024-03-06T08:49:02;5.13;;;4.57;;
22034;SDS011;11181;51.002;4.356;2024-03-06T08:51:28;6.57;;;4.77;;
22034;SDS011;11181;51.002;4.356;2024-03-06T08:53:55;7.20;;;4.87;;
22034;SDS011;11181;51.002;4.356;2024-03-06T08:56:24;7.60;;;5.57;;
22034;SDS011;11181;51.002;4.356;2024-03-06T08:58:50;10.10;;;4.97;;
22034;SDS011;11181;51.002;4.356;2024-03-06T09:01:17;7.23;;;4.57;;
22034;SDS011;11181;51.002;4.356;2024-03-06T09:03:44;4.60;;;4.20;;
22034;SDS011;11181;51.002;4.356;2024-03-06T09:06:11;8.10;;;4.77;;
22034;SDS011;11181;51.002;4.356;2024-03-06T09:08:38;5.27;;;4.30;;
22034;SDS011;11181;51.002;4.356;2024-03-06T09:11:05;7.07;;;4.93;;
22034;SDS011;11181;51.002;4.356;2024-03-06T09:13:33;5.57;;;4.47;;
22034;SDS011;11181;51.002;4.356;2024-03-06T09:16:00;6.90;;;5.07;;
22034;SDS011;11181;51.002;4.356;2024-03-06T09:18:27;11.67;;;4.90;;
22034;SDS011;11181;51.002;4.356;2024-03-06T09:20:54;7.90;;;5.73;;
22034;SDS011;11181;51.002;4.356;2024-03-06T09:23:21;6.73;;;5.63;;
22034;SDS011;11181;51.002;4.356;2024-03-06T09:25:48;7.80;;;5.63;;
22034;SDS011;11181;51.002;4.356;2024-03-06T09:28:15;7.63;;;5.90;;
22034;SDS011;11181;51.002;4.356;2024-03-06T09:30:43;6.67;;;4.70;;
22034;SDS011;11181;51.002;4.356;2024-03-06T09:33:11;5.67;;;4.80;;
22034;SDS011;11181;51.002;4.356;2024-03-06T09:35:38;6.83;;;5.00;;
22034;SDS011;11181;51.002;4.356;2024-03-06T09:38:10;10.97;;;7.20;;
22034;SDS011;11181;51.002;4.356;2024-03-06T09:40:38;6.13;;;4.60;;
22034;SDS011;11181;51.002;4.356;2024-03-06T09:43:06;7.63;;;5.13;;
22034;SDS011;11181;51.002;4.356;2024-03-06T09:45:34;7.17;;;5.40;;
22034;SDS011;11181;51.002;4.356;2024-03-06T09:48:04;6.77;;;4.57;;
22034;SDS011;11181;51.002;4.356;2024-03-06T09:50:32;10.07;;;6.10;;
22034;SDS011;11181;51.002;4.356;2024-03-06T09:53:03;9.50;;;5.83;;
22034;SDS011;11181;51.002;4.356;2024-03-06T09:55:32;7.97;;;6.13;;
22034;SDS011;11181;51.002;4.356;2024-03-06T09:58:00;5.73;;;5.07;;
22034;SDS011;11181;51.002;4.356;2024-03-06T10:00:30;6.37;;;5.30;;
22034;SDS011;11181;51.002;4.356;2024-03-06T10:02:59;6.60;;;5.60;;
22034;SDS011;11181;51.002;4.356;2024-03-06T10:05:27;8.73;;;5.23;;
22034;SDS011;11181;51.002;4.356;2024-03-06T10:07:55;8.03;;;4.97;;
22034;SDS011;11181;51.002;4.356;2024-03-06T10:10:24;7.97;;;4.83;;
22034;SDS011;11181;51.002;4.356;2024-03-06T10:12:51;8.53;;;4.67;;
22034;SDS011;11181;51.002;4.356;2024-03-06T10:15:19;6.17;;;5.47;;
22034;SDS011;11181;51.002;4.356;2024-03-06T10:17:46;6.83;;;4.13;;
22034;SDS011;11181;51.002;4.356;2024-03-06T10:20:20;7.83;;;4.73;;
22034;SDS011;11181;51.002;4.356;2024-03-06T10:22:52;3.93;;;3.50;;
22034;SDS011;11181;51.002;4.356;2024-03-06T10:25:20;4.23;;;3.80;;
22034;SDS011;11181;51.002;4.356;2024-03-06T10:28:02;6.37;;;4.83;;
22034;SDS011;11181;51.002;4.356;2024-03-06T10:30:32;4.13;;;3.50;;
22034;SDS011;11181;51.002;4.356;2024-03-06T10:33:01;4.43;;;3.50;;
22034;SDS011;11181;51.002;4.356;2024-03-06T10:35:28;5.37;;;3.73;;
22034;SDS011;11181;51.002;4.356;2024-03-06T10:37:56;4.80;;;4.27;;
22034;SDS011;11181;51.002;4.356;2024-03-06T10:40:27;3.53;;;3.23;;
22034;SDS011;11181;51.002;4.356;2024-03-06T10:42:58;5.30;;;3.40;;
22034;SDS011;11181;51.002;4.356;2024-03-06T10:45:27;3.80;;;3.03;;
22034;SDS011;11181;51.002;4.356;2024-03-06T10:48:03;4.50;;;3.50;;
22034;SDS011;11181;51.002;4.356;2024-03-06T10:50:32;4.93;;;3.33;;
22034;SDS011;11181;51.002;4.356;2024-03-06T10:53:00;4.03;;;3.37;;
22034;SDS011;11181;51.002;4.356;2024-03-06T10:55:29;4.90;;;3.73;;
22034;SDS011;11181;51.002;4.356;2024-03-06T10:57:59;4.03;;;3.63;;
22034;SDS011;11181;51.002;4.356;2024-03-06T11:00:26;5.23;;;3.60;;
22034;SDS011;11181;51.002;4.356;2024-03-06T11:02:54;4.90;;;3.27;;
22034;SDS011;11181;51.002;4.356;2024-03-06T11:05:24;3.90;;;3.30;;
22034;SDS011;11181;51.002;4.356;2024-03-06T11:07:50;3.83;;;2.87;;
22034;SDS011;11181;51.002;4.356;2024-03-06T11:10:30;4.73;;;3.80;;
22034;SDS011;11181;51.002;4.356;2024-03-06T11:12:58;3.70;;;2.50;;
22034;SDS011;11181;51.002;4.356;2024-03-06T11:15:25;3.40;;;2.73;;
22034;SDS011;11181;51.002;4.356;2024-03-06T11:17:52;3.83;;;3.00;;
22034;SDS011;11181;51.002;4.356;2024-03-06T11:20:20;3.67;;;2.80;;
22034;SDS011;11181;51.002;4.356;2024-03-06T11:23:02;3.43;;;2.97;;
22034;SDS011;11181;51.002;4.356;2024-03-06T11:28:35;3.53;;;3.13;;
22034;SDS011;11181;51.002;4.356;2024-03-06T11:31:05;4.50;;;3.63;;
22034;SDS011;11181;51.002;4.356;2024-03-06T11:33:36;4.03;;;3.43;;
22034;SDS011;11181;51.002;4.356;2024-03-06T11:36:14;3.83;;;3.33;;
22034;SDS011;11181;51.002;4.356;2024-03-06T11:38:46;3.80;;;3.00;;
22034;SDS011;11181;51.002;4.356;2024-03-06T11:41:25;4.70;;;3.43;;
22034;SDS011;11181;51.002;4.356;2024-03-06T11:43:53;4.43;;;3.63;;
22034;SDS011;11181;51.002;4.356;2024-03-06T11:46:21;3.90;;;3.40;;
22034;SDS011;11181;51.002;4.356;2024-03-06T11:48:52;3.73;;;2.83;;
22034;SDS011;11181;51.002;4.356;2024-03-06T11:51:20;3.17;;;2.87;;
22034;SDS011;11181;51.002;4.356;2024-03-06T11:53:51;5.40;;;3.30;;
22034;SDS011;11181;51.002;4.356;2024-03-06T11:56:19;3.27;;;2.97;;
22034;SDS011;11181;51.002;4.356;2024-03-06T11:58:47;3.23;;;2.93;;
22034;SDS011;11181;51.002;4.356;2024-03-06T12:01:14;6.03;;;3.30;;
22034;SDS011;11181;51.002;4.356;2024-03-06T12:03:42;3.37;;;2.30;;
22034;SDS011;11181;51.002;4.356;2024-03-06T12:06:10;2.80;;;2.60;;
22034;SDS011;11181;51.002;4.356;2024-03-06T12:08:38;3.00;;;2.63;;
22034;SDS011;11181;51.002;4.356;2024-03-06T12:11:07;4.00;;;2.63;;
22034;SDS011;11181;51.002;4.356;2024-03-06T12:13:34;3.93;;;2.60;;
22034;SDS011;11181;51.002;4.356;2024-03-06T12:16:06;3.53;;;2.47;;
22034;SDS011;11181;51.002;4.356;2024-03-06T12:18:34;3.47;;;2.70;;
22034;SDS011;11181;51.002;4.356;2024-03-06T12:21:01;5.47;;;2.90;;
22034;SDS011;11181;51.002;4.356;2024-03-06T12:23:29;3.53;;;2.70;;
22034;SDS011;11181;51.002;4.356;2024-03-06T12:26:05;4.90;;;2.30;;
22034;SDS011;11181;51.002;4.356;2024-03-06T12:28:34;3.33;;;2.20;;
22034;SDS011;11181;51.002;4.356;2024-03-06T12:31:02;3.33;;;2.77;;
22034;SDS011;11181;51.002;4.356;2024-03-06T12:33:31;3.33;;;2.57;;
22034;SDS011;11181;51.002;4.356;2024-03-06T12:36:00;2.33;;;2.10;;
22034;SDS011;11181;51.002;4.356;2024-03-06T12:38:30;4.07;;;2.70;;
22034;SDS011;11181;51.002;4.356;2024-03-06T12:40:57;3.70;;;2.00;;
22034;SDS011;11181;51.002;4.356;2024-03-06T12:43:25;4.93;;;3.40;;
22034;SDS011;11181;51.002;4.356;2024-03-06T12:45:53;6.73;;;3.60;;
22034;SDS011;11181;51.002;4.356;2024-03-06T12:48:22;4.20;;;3.20;;
22034;SDS011;11181;51.002;4.356;2024-03-06T12:50:50;6.50;;;3.40;;
22034;SDS011;11181;51.002;4.356;2024-03-06T12:53:19;3.63;;;3.10;;
22034;SDS011;11181;51.002;4.356;2024-03-06T12:55:47;4.73;;;3.70;;
22034;SDS011;11181;51.002;4.356;2024-03-06T12:58:14;5.93;;;2.47;;
22034;SDS011;11181;51.002;4.356;2024-03-06T13:00:42;3.80;;;2.67;;
22034;SDS011;11181;51.002;4.356;2024-03-06T13:03:08;3.83;;;2.47;;
22034;SDS011;11181;51.002;4.356;2024-03-06T13:05:35;4.70;;;2.40;;
22034;SDS011;11181;51.002;4.356;2024-03-06T13:08:05;3.20;;;1.80;;
22034;SDS011;11181;51.002;4.356;2024-03-06T13:10:32;3.17;;;2.50;;
22034;SDS011;11181;51.002;4.356;2024-03-06T13:13:00;2.77;;;2.57;;
22034;SDS011;11181;51.002;4.356;2024-03-06T13:15:27;3.60;;;2.83;;
22034;SDS011;11181;51.002;4.356;2024-03-06T13:17:54;5.10;;;2.40;;
22034;SDS011;11181;51.002;4.356;2024-03-06T13:20:22;5.37;;;2.60;;
22034;SDS011;11181;51.002;4.356;2024-03-06T13:22:49;3.07;;;2.43;;
22034;SDS011;11181;51.002;4.356;2024-03-06T13:25:17;2.87;;;2.20;;
22034;SDS011;11181;51.002;4.356;2024-03-06T13:27:44;2.20;;;2.00;;
22034;SDS011;11181;51.002;4.356;2024-03-06T13:30:12;2.60;;;1.77;;
22034;SDS011;11181;51.002;4.356;2024-03-06T13:32:40;1.77;;;1.43;;
22034;SDS011;11181;51.002;4.356;2024-03-06T13:35:08;2.33;;;1.67;;
22034;SDS011;11181;51.002;4.356;2024-03-06T13:37:37;2.47;;;2.03;;
22034;SDS011;11181;51.002;4.356;2024-03-06T13:40:04;2.23;;;2.03;;
22034;SDS011;11181;51.002;4.356;2024-03-06T13:42:35;3.53;;;2.50;;
22034;SDS011;11181;51.002;4.356;2024-03-06T13:45:02;2.20;;;2.00;;
22034;SDS011;11181;51.002;4.356;2024-03-06T13:47:30;3.20;;;2.10;;
22034;SDS011;11181;51.002;4.356;2024-03-06T13:49:57;3.50;;;2.00;;
22034;SDS011;11181;51.002;4.356;2024-03-06T13:52:24;2.20;;;1.97;;
22034;SDS011;11181;51.002;4.356;2024-03-06T13:54:51;2.03;;;1.70;;
22034;SDS011;11181;51.002;4.356;2024-03-06T13:57:18;2.53;;;2.03;;
22034;SDS011;11181;51.002;4.356;2024-03-06T13:59:47;2.60;;;2.33;;
22034;SDS011;11181;51.002;4.356;2024-03-06T14:02:15;2.53;;;1.67;;
22034;SDS011;11181;51.002;4.356;2024-03-06T14:04:42;2.33;;;1.90;;
22034;SDS011;11181;51.002;4.356;2024-03-06T14:07:09;2.93;;;2.23;;
22034;SDS011;11181;51.002;4.356;2024-03-06T14:09:40;2.30;;;2.10;;
22034;SDS011;11181;51.002;4.356;2024-03-06T14:12:17;2.13;;;1.80;;
22034;SDS011;11181;51.002;4.356;2024-03-06T14:14:44;3.50;;;1.63;;
22034;SDS011;11181;51.002;4.356;2024-03-06T14:17:15;2.77;;;2.03;;
22034;SDS011;11181;51.002;4.356;2024-03-06T14:19:47;5.30;;;2.13;;
22034;SDS011;11181;51.002;4.356;2024-03-06T14:22:14;1.90;;;1.80;;
22034;SDS011;11181;51.002;4.356;2024-03-06T14:24:41;2.17;;;1.63;;
22034;SDS011;11181;51.002;4.356;2024-03-06T14:27:08;3.07;;;2.00;;
22034;SDS011;11181;51.002;4.356;2024-03-06T14:29:36;2.60;;;1.20;;
22034;SDS011;11181;51.002;4.356;2024-03-06T14:32:05;3.53;;;1.47;;
22034;SDS011;11181;51.002;4.356;2024-03-06T14:34:32;2.20;;;1.67;;
22034;SDS011;11181;51.002;4.356;2024-03-06T14:36:59;1.90;;;1.53;;
22034;SDS011;11181;51.002;4.356;2024-03-06T14:39:26;2.50;;;1.70;;
22034;SDS011;11181;51.002;4.356;2024-03-06T14:41:55;1.70;;;1.57;;
22034;SDS011;11181;51.002;4.356;2024-03-06T14:44:32;2.37;;;1.47;;
22034;SDS011;11181;51.002;4.356;2024-03-06T14:46:59;3.10;;;1.87;;
22034;SDS011;11181;51.002;4.356;2024-03-06T14:49:28;3.13;;;1.80;;
22034;SDS011;11181;51.002;4.356;2024-03-06T14:51:55;2.90;;;1.47;;
22034;SDS011;11181;51.002;4.356;2024-03-06T14:54:22;3.33;;;1.70;;